Time;durP1;ratioP1;P1;durP2;ratioP2;P2;SDS_P1;SDS_P2;PMS_P1;PMS_P2;Temp;Humidity;BMP_temperature;BMP_pressure;BME280_temperature;BME280_humidity;BME280_pressure;Samples;Min_cycle;Max_cycle;Signal;HPM_P1;HPM_P2
2022/06/04 00:00:31;;;;;;;267.10;70.40;;;21.60;88.30;;;;;;4991504;28;19910;-52
2022/06/04 00:02:57;;;;;;;266.45;71.55;;;21.60;88.30;;;;;;4990638;28;20034;-56
2022/06/04 00:05:26;;;;;;;97.47;51.87;;;21.60;88.50;;;;;;4991887;28;20037;-52
2022/06/04 00:07:52;;;;;;;395.98;80.15;;;21.60;88.00;;;;;;4991496;28;20035;-52
2022/06/04 00:15:57;;;;;;;111.78;66.20;;;21.60;87.70;;;;;;4992032;28;20038;-54
2022/06/04 00:18:23;;;;;;;469.45;95.53;;;21.50;87.80;;;;;;4991474;28;20034;-55
2022/06/04 00:20:50;;;;;;;310.98;85.50;;;21.50;88.00;;;;;;4991558;28;20070;-54
2022/06/04 00:23:17;;;;;;;374.08;85.65;;;21.50;88.10;;;;;;4991943;28;20053;-55
2022/06/04 00:25:47;;;;;;;465.05;97.97;;;21.50;87.80;;;;;;4991615;28;20549;-56
2022/06/04 00:28:14;;;;;;;319.52;86.70;;;21.40;87.30;;;;;;4991684;28;20105;-52
2022/06/04 00:30:40;;;;;;;254.48;78.53;;;21.30;87.60;;;;;;4991735;28;20033;-51
2022/06/04 00:33:06;;;;;;;424.40;88.53;;;21.20;87.90;;;;;;4990913;28;20061;-54
2022/06/04 00:35:34;;;;;;;101.57;63.92;;;21.20;88.20;;;;;;4991619;28;20441;-52
2022/06/04 00:38:00;;;;;;;206.88;77.78;;;21.20;88.60;;;;;;4991249;28;20136;-55
2022/06/04 00:40:39;;;;;;;98.90;66.80;;;21.10;89.10;;;;;;4991098;28;20486;-52
2022/06/04 00:43:05;;;;;;;72.53;58.53;;;21.10;89.30;;;;;;4991519;28;20115;-52
2022/06/04 00:45:36;;;;;;;107.30;70.57;;;21.10;89.10;;;;;;4991092;28;20483;-54
2022/06/04 00:48:06;;;;;;;70.93;59.30;;;21.10;89.40;;;;;;4992870;28;20530;-55
2022/06/04 00:50:34;;;;;;;82.15;63.13;;;21.10;89.10;;;;;;4995230;28;20497;-52
2022/06/04 00:53:02;;;;;;;90.93;67.20;;;21.10;88.80;;;;;;4995165;28;20041;-53
2022/06/04 00:55:55;;;;;;;96.93;70.82;;;21.20;88.30;;;;;;4995024;28;20109;-55
2022/06/04 00:58:49;;;;;;;78.80;64.57;;;21.20;88.30;;;;;;4994561;28;20093;-54
2022/06/04 01:01:31;;;;;;;92.65;71.72;;;21.20;88.50;;;;;;4992692;28;20031;-53
2022/06/04 01:04:47;;;;;;;82.97;69.03;;;21.20;88.90;;;;;;4982605;28;20030;-54
2022/06/04 01:07:20;;;;;;;70.93;60.53;;;21.20;88.90;;;;;;4994462;28;20035;-54
2022/06/04 01:10:06;;;;;;;72.07;63.00;;;21.10;89.10;;;;;;4994856;28;20035;-54
2022/06/04 01:12:41;;;;;;;81.97;66.30;;;21.10;89.00;;;;;;4994449;28;20023;-55
2022/06/04 01:15:27;;;;;;;86.93;68.47;;;21.10;88.80;;;;;;4994546;28;20083;-51
2022/06/04 01:18:19;;;;;;;81.60;66.72;;;21.20;88.60;;;;;;4994533;28;20027;-53
2022/06/04 01:21:04;;;;;;;83.75;65.25;;;21.20;88.00;;;;;;4994046;28;20037;-53
2022/06/04 01:23:42;;;;;;;82.65;56.60;;;21.20;88.00;;;;;;4994490;28;20026;-55
2022/06/04 01:26:57;;;;;;;112.38;59.20;;;21.20;87.70;;;;;;4994434;28;20098;-53
2022/06/04 01:29:39;;;;;;;527.40;72.38;;;21.00;88.80;;;;;;4915150;29;20040;-53
2022/06/04 01:32:05;;;;;;;160.07;62.60;;;20.90;89.90;;;;;;4927697;29;20027;-55
2022/06/04 01:34:50;;;;;;;845.27;121.13;;;20.80;90.00;;;;;;4968800;28;20538;-55
2022/06/04 01:37:34;;;;;;;516.30;102.30;;;20.80;90.50;;;;;;4993951;28;20069;-56
2022/06/04 01:42:51;;;;;;;386.58;98.75;;;20.90;90.00;;;;;;4994447;28;20411;-55
2022/06/04 01:45:19;;;;;;;444.50;96.93;;;21.00;89.70;;;;;;4993885;28;20027;-54
2022/06/04 01:47:48;;;;;;;377.42;86.68;;;21.10;89.10;;;;;;4993634;28;20041;-54
2022/06/04 01:50:18;;;;;;;595.45;112.60;;;21.00;88.60;;;;;;4993943;28;20030;-52
2022/06/04 01:52:46;;;;;;;828.53;127.22;;;21.00;88.40;;;;;;4992256;28;20041;-52
2022/06/04 01:55:23;;;;;;;424.08;77.22;;;20.90;88.60;;;;;;4993824;28;20027;-56
2022/06/04 01:57:58;;;;;;;529.10;99.45;;;20.80;89.10;;;;;;4993955;28;20034;-53
2022/06/04 02:00:29;;;;;;;650.53;110.25;;;20.70;89.50;;;;;;4991150;28;20027;-54
2022/06/04 02:03:12;;;;;;;464.98;96.32;;;20.70;89.90;;;;;;4993717;28;20513;-55
2022/06/04 02:05:54;;;;;;;452.08;91.07;;;20.60;89.80;;;;;;4993425;28;20073;-56
2022/06/04 02:08:29;;;;;;;407.20;90.90;;;20.60;89.60;;;;;;4992263;28;20037;-54
2022/06/04 02:11:03;;;;;;;578.28;105.47;;;20.60;89.50;;;;;;4993315;28;20076;-54
2022/06/04 02:13:29;;;;;;;199.02;65.30;;;20.60;89.40;;;;;;4993474;28;20034;-54
2022/06/04 02:16:15;;;;;;;65.55;57.92;;;20.60;89.40;;;;;;4992691;28;20058;-56
2022/06/04 02:18:41;;;;;;;81.88;59.47;;;20.70;89.70;;;;;;4993409;28;20034;-52
2022/06/04 02:21:07;;;;;;;506.03;97.63;;;20.70;89.40;;;;;;4993352;28;20121;-55
2022/06/04 02:23:35;;;;;;;190.27;72.43;;;20.70;89.40;;;;;;4993298;28;20108;-52
2022/06/04 02:26:01;;;;;;;161.15;75.47;;;20.80;89.60;;;;;;4993221;28;20394;-56
2022/06/04 02:28:28;;;;;;;207.07;81.43;;;20.80;89.50;;;;;;4993322;28;20028;-53
2022/06/04 02:31:12;;;;;;;157.02;73.25;;;20.80;89.30;;;;;;4992539;28;20045;-56
2022/06/04 02:33:59;;;;;;;85.45;67.95;;;20.90;89.20;;;;;;4991698;28;20293;-52
2022/06/04 02:36:31;;;;;;;94.70;72.68;;;20.90;89.00;;;;;;4993264;28;20387;-52
2022/06/04 02:39:06;;;;;;;100.22;74.32;;;20.90;88.90;;;;;;4992953;28;20032;-52
2022/06/04 02:41:38;;;;;;;97.07;70.03;;;21.00;89.00;;;;;;4992743;28;20057;-54
2022/06/04 02:44:24;;;;;;;123.32;79.03;;;21.10;88.70;;;;;;4992923;28;20390;-54
2022/06/04 02:47:07;;;;;;;144.55;81.22;;;21.20;89.00;;;;;;4992241;28;20165;-54
2022/06/04 02:50:01;;;;;;;175.20;83.53;;;21.10;88.90;;;;;;4982550;28;20046;-54
2022/06/04 02:52:29;;;;;;;128.77;79.47;;;21.10;89.10;;;;;;4988874;28;20124;-56
2022/06/04 02:54:58;;;;;;;87.68;70.78;;;21.10;88.90;;;;;;4992219;28;20034;-53
2022/06/04 02:57:26;;;;;;;219.48;91.13;;;21.20;88.70;;;;;;4973508;28;20031;-52
2022/06/04 02:59:53;;;;;;;376.13;109.03;;;21.20;88.80;;;;;;4979891;28;20053;-55
2022/06/04 03:02:20;;;;;;;303.38;106.00;;;21.20;88.70;;;;;;4991680;28;20056;-54
2022/06/04 03:04:49;;;;;;;173.18;86.88;;;21.20;88.60;;;;;;4992250;28;20035;-52
2022/06/04 03:07:16;;;;;;;119.25;70.72;;;21.20;88.90;;;;;;4992596;28;20030;-52
2022/06/04 03:09:44;;;;;;;;;;;21.20;89.10;;;;;;4993207;28;20030;-55
2022/06/04 03:12:12;;;;;;;217.93;61.95;;;21.10;89.10;;;;;;4992265;28;19909;-52
2022/06/04 03:14:37;;;;;;;165.40;60.05;;;20.90;89.00;;;;;;4986446;28;20027;-55
2022/06/04 03:17:09;;;;;;;124.37;55.90;;;20.80;89.20;;;;;;4976007;28;21581;-57
2022/06/04 03:19:35;;;;;;;82.53;52.42;;;20.80;89.50;;;;;;4986808;28;20030;-54
2022/06/04 03:22:01;;;;;;;120.53;50.47;;;20.70;89.80;;;;;;4992567;28;20390;-55
2022/06/04 03:24:27;;;;;;;240.23;62.30;;;20.60;89.90;;;;;;5005252;28;20049;-52
2022/06/04 03:26:52;;;;;;;115.90;54.70;;;20.50;90.10;;;;;;5011820;28;20022;-52
2022/06/04 03:29:18;;;;;;;218.67;63.17;;;20.50;90.00;;;;;;5005534;28;20022;-56
2022/06/04 03:31:45;;;;;;;199.07;58.10;;;20.50;90.00;;;;;;4992537;28;20073;-55
2022/06/04 03:34:11;;;;;;;125.05;52.92;;;20.60;89.90;;;;;;4991925;28;20020;-53
2022/06/04 03:36:39;;;;;;;155.40;52.42;;;20.50;90.00;;;;;;4992039;28;20041;-53
2022/06/04 03:39:06;;;;;;;129.73;59.53;;;20.50;90.00;;;;;;4984770;28;20031;-56
2022/06/04 03:41:32;;;;;;;128.55;55.70;;;20.60;90.00;;;;;;4987690;28;20058;-54
2022/06/04 03:43:58;;;;;;;89.27;55.03;;;20.70;89.70;;;;;;4992362;28;20491;-55
2022/06/04 03:46:25;;;;;;;213.47;63.17;;;20.80;89.40;;;;;;4990497;28;20097;-55
2022/06/04 03:48:52;;;;;;;287.98;66.70;;;20.80;89.30;;;;;;4990859;28;20113;-53
2022/06/04 03:51:18;;;;;;;174.77;53.47;;;20.80;89.30;;;;;;4991755;28;20044;-58
2022/06/04 03:53:43;;;;;;;146.07;51.90;;;20.70;89.80;;;;;;4978268;28;20019;-57
2022/06/04 03:56:09;;;;;;;201.20;56.47;;;20.60;90.00;;;;;;4991667;28;20369;-54
2022/06/04 03:58:35;;;;;;;239.60;62.23;;;20.50;90.20;;;;;;4992404;28;20113;-56
2022/06/04 04:01:16;;;;;;;133.45;54.80;;;20.50;90.30;;;;;;4991608;28;20030;-57
2022/06/04 04:03:42;;;;;;;160.18;55.63;;;20.60;90.40;;;;;;4992107;28;20117;-55
2022/06/04 04:06:16;;;;;;;457.55;94.43;;;20.60;90.30;;;;;;4991619;28;20030;-57
2022/06/04 04:08:42;;;;;;;195.35;69.97;;;20.60;90.40;;;;;;4992073;28;20030;-56
2022/06/04 04:11:13;;;;;;;168.00;63.83;;;20.60;90.40;;;;;;4991873;28;20030;-55
2022/06/04 04:13:39;;;;;;;225.32;70.13;;;20.70;90.50;;;;;;4991984;28;20018;-55
2022/06/04 04:16:06;;;;;;;204.20;68.70;;;20.70;90.30;;;;;;4992115;28;20058;-56
2022/06/04 04:18:32;;;;;;;;;;;20.60;90.30;;;;;;4992229;28;20253;-57
2022/06/04 04:21:02;;;;;;;204.77;67.93;;;20.50;90.50;;;;;;4990972;28;19906;-56
2022/06/04 04:23:27;;;;;;;135.02;55.78;;;20.50;90.50;;;;;;4994450;28;20034;-56
2022/06/04 04:25:53;;;;;;;156.87;55.43;;;20.50;90.50;;;;;;4995778;28;20030;-57
2022/06/04 04:28:19;;;;;;;178.53;61.30;;;20.40;90.50;;;;;;4995647;28;20033;-54
2022/06/04 04:30:45;;;;;;;173.93;52.80;;;20.40;90.70;;;;;;4995978;28;20030;-55
2022/06/04 04:33:10;;;;;;;73.30;48.30;;;20.20;91.30;;;;;;4994341;28;20030;-57
2022/06/04 04:35:36;;;;;;;113.57;47.10;;;20.10;91.30;;;;;;4995485;28;20102;-54
2022/06/04 04:38:02;;;;;;;86.20;50.70;;;20.10;91.40;;;;;;4995682;28;20037;-56
2022/06/04 04:40:29;;;;;;;82.47;46.13;;;20.20;91.30;;;;;;4995980;28;20042;-56
2022/06/04 04:42:55;;;;;;;83.93;47.65;;;20.30;91.00;;;;;;4995467;28;20145;-53
2022/06/04 04:45:23;;;;;;;64.43;44.27;;;20.30;91.00;;;;;;4995381;28;20105;-55
2022/06/04 04:47:49;;;;;;;75.55;47.22;;;20.30;91.10;;;;;;4995253;28;20447;-55
2022/06/04 04:50:25;;;;;;;67.03;48.55;;;20.40;91.00;;;;;;4995295;28;20078;-57
2022/06/04 04:52:54;;;;;;;73.35;48.45;;;20.40;90.80;;;;;;4995332;28;20033;-56
2022/06/04 04:55:20;;;;;;;64.80;46.72;;;20.40;90.70;;;;;;4995038;28;20022;-58
2022/06/04 04:57:45;;;;;;;59.15;44.00;;;20.50;90.40;;;;;;4995916;28;20037;-56
2022/06/04 05:00:12;;;;;;;57.53;43.22;;;20.60;90.30;;;;;;4995194;28;20022;-55
2022/06/04 05:02:38;;;;;;;56.38;41.05;;;20.60;90.30;;;;;;4995320;28;20034;-56
2022/06/04 05:05:05;;;;;;;54.23;39.23;;;20.60;90.30;;;;;;4995035;28;20046;-54
2022/06/04 05:07:31;;;;;;;49.38;39.97;;;20.60;90.20;;;;;;4995067;28;20342;-57
2022/06/04 05:09:57;;;;;;;53.50;41.17;;;20.60;90.40;;;;;;4994872;28;20022;-56
2022/06/04 05:12:23;;;;;;;46.70;38.67;;;20.60;90.40;;;;;;4993624;28;20142;-56
2022/06/04 05:14:49;;;;;;;47.23;37.20;;;20.50;90.60;;;;;;4994849;28;20054;-53
2022/06/04 05:17:14;;;;;;;41.63;36.97;;;20.50;90.50;;;;;;4994916;28;20031;-53
2022/06/04 05:19:40;;;;;;;42.23;35.67;;;20.60;90.40;;;;;;4994858;28;20446;-53
2022/06/04 05:22:06;;;;;;;45.10;37.17;;;20.70;90.40;;;;;;4994841;28;20034;-56
2022/06/04 05:24:34;;;;;;;42.57;36.43;;;20.60;90.50;;;;;;4994632;28;20033;-58
2022/06/04 05:27:02;;;;;;;37.25;33.28;;;20.70;90.30;;;;;;4994562;28;20441;-58
2022/06/04 05:29:29;;;;;;;37.95;32.80;;;20.80;90.30;;;;;;4994727;28;20038;-56
2022/06/04 05:31:56;;;;;;;38.67;34.47;;;20.90;90.20;;;;;;4994611;28;20423;-54
2022/06/04 05:34:23;;;;;;;37.33;33.40;;;20.80;90.30;;;;;;4993354;28;20019;-59
2022/06/04 05:36:50;;;;;;;37.25;33.30;;;20.90;90.20;;;;;;4994348;28;20542;-55
2022/06/04 05:39:17;;;;;;;37.92;33.92;;;20.90;90.10;;;;;;4993180;28;20034;-55
2022/06/04 05:41:43;;;;;;;39.88;33.38;;;20.90;90.10;;;;;;4994732;28;20080;-54
2022/06/04 05:44:09;;;;;;;37.78;33.67;;;21.00;90.10;;;;;;4994445;28;20098;-53
2022/06/04 05:46:36;;;;;;;37.20;33.00;;;21.10;90.30;;;;;;4994115;28;20495;-55
2022/06/04 05:49:02;;;;;;;35.70;31.85;;;21.20;89.90;;;;;;4994251;28;20101;-56
2022/06/04 05:51:30;;;;;;;35.27;28.93;;;21.20;89.20;;;;;;4994100;28;20101;-56
2022/06/04 05:53:56;;;;;;;33.25;28.02;;;21.20;88.80;;;;;;4994219;28;20088;-57
2022/06/04 05:56:25;;;;;;;32.42;28.58;;;21.20;88.80;;;;;;4994048;28;20110;-57
2022/06/04 05:58:54;;;;;;;31.48;28.02;;;21.20;88.80;;;;;;4994100;28;20037;-59
2022/06/04 06:01:21;;;;;;;34.78;29.45;;;21.30;88.60;;;;;;4994002;28;20022;-58
2022/06/04 06:03:48;;;;;;;32.88;29.42;;;21.40;88.80;;;;;;4994133;28;20565;-57
2022/06/04 06:06:19;;;;;;;36.10;29.13;;;21.50;88.30;;;;;;4993710;28;20031;-60
2022/06/04 06:08:45;;;;;;;32.15;27.33;;;21.60;87.90;;;;;;4994112;28;20352;-54
2022/06/04 06:11:13;;;;;;;32.97;28.97;;;21.70;87.00;;;;;;4993857;28;20550;-59
2022/06/04 06:13:40;;;;;;;32.72;28.05;;;21.80;86.70;;;;;;4993959;28;20093;-56
2022/06/04 06:16:11;;;;;;;31.40;27.50;;;21.70;86.50;;;;;;4993636;28;20505;-58
2022/06/04 06:18:37;;;;;;;33.10;28.17;;;21.80;86.50;;;;;;4993626;28;20026;-57
2022/06/04 06:21:12;;;;;;;39.17;30.17;;;21.80;86.50;;;;;;4993770;28;20374;-56
2022/06/04 06:23:39;;;;;;;32.85;27.42;;;21.80;86.40;;;;;;4993702;28;20030;-56
2022/06/04 06:26:11;;;;;;;31.63;26.50;;;21.60;86.00;;;;;;4993571;28;20026;-58
2022/06/04 06:28:37;;;;;;;31.02;27.63;;;21.60;86.40;;;;;;4993413;28;20033;-56
2022/06/04 06:31:04;;;;;;;33.60;26.83;;;21.60;86.50;;;;;;4993903;28;20041;-61
2022/06/04 06:33:30;;;;;;;29.70;26.70;;;21.70;86.20;;;;;;4993516;28;20081;-57
2022/06/04 06:35:58;;;;;;;36.30;30.87;;;21.80;86.20;;;;;;4993304;28;20360;-58
2022/06/04 06:38:24;;;;;;;34.65;30.98;;;21.90;86.40;;;;;;4993292;28;20058;-58
2022/06/04 06:40:49;;;;;;;38.07;30.73;;;21.90;85.90;;;;;;4993199;28;20038;-58
2022/06/04 06:43:15;;;;;;;34.37;28.90;;;21.90;86.30;;;;;;4993301;28;20058;-60
2022/06/04 06:45:41;;;;;;;36.13;31.53;;;22.00;86.40;;;;;;4992724;28;20036;-60
2022/06/04 06:48:08;;;;;;;34.72;29.50;;;22.00;86.00;;;;;;4993104;28;20450;-56
2022/06/04 06:50:34;;;;;;;;;;;22.10;86.00;;;;;;4993485;28;20022;-57
2022/06/04 06:53:00;;;;;;;33.22;28.20;;;22.20;85.60;;;;;;4993150;28;19985;-58
2022/06/04 06:55:26;;;;;;;33.40;29.80;;;22.30;84.90;;;;;;4992966;28;20109;-60
2022/06/04 06:57:52;;;;;;;31.65;28.30;;;22.40;84.30;;;;;;4993150;28;20037;-58
2022/06/04 07:00:18;;;;;;;35.53;28.77;;;22.40;84.20;;;;;;4992815;28;20026;-60
2022/06/04 07:02:44;;;;;;;33.35;28.13;;;22.40;84.00;;;;;;4993007;28;20023;-60
2022/06/04 07:05:10;;;;;;;34.53;28.83;;;22.40;84.30;;;;;;4992868;28;20410;-56
2022/06/04 07:07:36;;;;;;;34.33;30.48;;;22.60;84.50;;;;;;4993212;28;20105;-58
2022/06/04 07:10:02;;;;;;;42.50;25.47;;;22.70;84.10;;;;;;4992863;28;20455;-58
2022/06/04 07:12:28;;;;;;;28.17;25.15;;;22.80;82.20;;;;;;4992841;28;20022;-60
2022/06/04 07:14:54;;;;;;;27.70;24.70;;;22.80;81.80;;;;;;4992528;28;20365;-60
2022/06/04 07:17:19;;;;;;;31.10;25.47;;;22.80;81.80;;;;;;4992702;28;20038;-61
2022/06/04 07:19:45;;;;;;;26.73;23.93;;;22.80;83.50;;;;;;4992632;28;20422;-60
2022/06/04 07:22:11;;;;;;;27.43;24.37;;;22.80;83.00;;;;;;4991360;28;20045;-60
2022/06/04 07:24:37;;;;;;;29.10;22.95;;;22.80;82.60;;;;;;4992498;28;20037;-59
2022/06/04 07:27:04;;;;;;;32.53;19.67;;;22.90;82.20;;;;;;4992558;28;20027;-60
2022/06/04 07:29:30;;;;;;;27.27;20.52;;;22.90;81.70;;;;;;4992288;28;20257;-59
2022/06/04 07:31:56;;;;;;;23.77;19.70;;;23.00;80.00;;;;;;4992526;28;20030;-60
2022/06/04 07:34:21;;;;;;;24.00;20.03;;;23.00;80.40;;;;;;4991118;28;20027;-57
2022/06/04 07:36:47;;;;;;;26.47;20.00;;;23.00;80.20;;;;;;4992263;28;20044;-56
2022/06/04 07:39:17;;;;;;;25.20;18.33;;;23.00;80.40;;;;;;4992272;28;20394;-56
2022/06/04 07:41:45;;;;;;;29.77;20.67;;;23.00;79.60;;;;;;4992505;28;20054;-57
2022/06/04 07:44:14;;;;;;;22.67;20.05;;;23.10;79.90;;;;;;4992259;28;20097;-52
2022/06/04 07:46:41;;;;;;;25.98;19.48;;;23.20;79.70;;;;;;4990831;28;20030;-57
2022/06/04 07:49:08;;;;;;;20.75;18.35;;;23.30;79.20;;;;;;4992469;28;20403;-56
2022/06/04 07:51:36;;;;;;;26.20;19.08;;;23.40;79.20;;;;;;4992480;28;20046;-57
2022/06/04 07:54:03;;;;;;;22.77;19.10;;;23.50;78.70;;;;;;4992345;28;20491;-53
2022/06/04 07:56:29;;;;;;;;;;;23.60;77.70;;;;;;4991372;28;20030;-52
2022/06/04 07:58:55;;;;;;;33.53;18.88;;;23.60;76.60;;;;;;4995484;28;19905;-56
2022/06/04 08:01:22;;;;;;;25.33;18.13;;;23.50;77.40;;;;;;4996459;28;20050;-52
2022/06/04 08:03:49;;;;;;;23.73;19.33;;;23.60;78.10;;;;;;4996355;28;20483;-54
2022/06/04 08:06:17;;;;;;;24.23;17.55;;;23.60;77.60;;;;;;4996107;28;20113;-52
2022/06/04 08:08:47;;;;;;;26.25;18.88;;;23.70;76.40;;;;;;4996122;28;20025;-52
2022/06/04 08:11:31;;;;;;;25.35;17.52;;;23.80;76.50;;;;;;4995695;28;20033;-56
2022/06/04 08:13:58;;;;;;;20.95;16.05;;;23.90;75.50;;;;;;4996059;28;20398;-55
2022/06/04 08:16:23;;;;;;;21.05;17.90;;;23.80;74.10;;;;;;4995865;28;20023;-52
2022/06/04 08:18:51;;;;;;;29.13;18.53;;;23.70;76.00;;;;;;4995944;28;20029;-56
2022/06/04 08:21:17;;;;;;;20.90;17.02;;;23.90;76.10;;;;;;4994616;28;20054;-52
2022/06/04 08:23:44;;;;;;;21.53;17.37;;;24.10;75.10;;;;;;4995807;28;20019;-54
2022/06/04 08:26:10;;;;;;;23.75;17.23;;;24.10;74.70;;;;;;4995723;28;20022;-52
2022/06/04 08:28:36;;;;;;;22.53;18.17;;;24.20;74.60;;;;;;4995813;28;20041;-51
2022/06/04 08:31:06;;;;;;;21.43;17.03;;;24.30;73.70;;;;;;4995766;28;20253;-55
2022/06/04 08:33:32;;;;;;;20.17;17.38;;;24.50;73.00;;;;;;4995613;28;20058;-53
2022/06/04 08:35:58;;;;;;;24.30;18.08;;;24.50;73.30;;;;;;4995545;28;20014;-54
2022/06/04 08:38:24;;;;;;;24.70;18.03;;;24.50;73.70;;;;;;4995426;28;20034;-52
2022/06/04 08:41:00;;;;;;;22.33;18.53;;;24.60;72.90;;;;;;4995403;28;20040;-52
2022/06/04 08:43:55;;;;;;;24.27;17.88;;;24.70;71.80;;;;;;4995625;28;20041;-52
2022/06/04 08:46:33;;;;;;;24.08;19.98;;;24.90;71.00;;;;;;4995460;28;20484;-52
2022/06/04 08:49:12;;;;;;;25.92;19.13;;;24.90;71.60;;;;;;4995418;28;20458;-52
2022/06/04 08:51:38;;;;;;;23.88;18.80;;;25.00;71.00;;;;;;4994264;28;20022;-56
2022/06/04 08:57:32;;;;;;;27.10;18.13;;;25.00;71.10;;;;;;4995582;28;20375;-53
2022/06/04 08:59:40;;;;;;;24.67;17.73;;;25.20;70.40;;;;;;4995545;28;20025;-56
2022/06/04 09:02:12;;;;;;;25.50;17.38;;;25.30;71.30;;;;;;4995306;28;20022;-53
2022/06/04 09:04:57;;;;;;;19.48;16.77;;;25.40;69.80;;;;;;4995065;28;20434;-53
2022/06/04 09:07:39;;;;;;;22.25;18.33;;;25.40;69.10;;;;;;4994948;28;20022;-56
2022/06/04 09:10:17;;;;;;;21.70;18.15;;;25.50;68.90;;;;;;4994768;28;20386;-54
2022/06/04 09:12:48;;;;;;;25.88;17.98;;;25.50;68.20;;;;;;4995048;28;20105;-55
2022/06/04 09:15:29;;;;;;;25.95;17.67;;;25.50;67.70;;;;;;4994894;28;20019;-54
2022/06/04 09:17:57;;;;;;;19.10;12.70;;;25.60;67.20;;;;;;4994844;28;20398;-52
2022/06/04 09:20:31;;;;;;;23.75;17.02;;;25.70;65.90;;;;;;4995240;28;20030;-53
2022/06/04 09:23:26;;;;;;;17.92;15.15;;;25.80;66.30;;;;;;4994896;28;20034;-53
2022/06/04 09:25:59;;;;;;;19.77;14.73;;;25.80;66.60;;;;;;4984001;28;20093;-56
2022/06/04 09:28:34;;;;;;;25.58;13.98;;;26.00;66.70;;;;;;4994571;28;20065;-53
2022/06/04 09:31:18;;;;;;;19.85;12.95;;;26.00;66.00;;;;;;4994657;28;20050;-56
2022/06/04 09:33:57;;;;;;;24.08;15.32;;;26.20;65.50;;;;;;4994697;28;20037;-52
2022/06/04 09:36:35;;;;;;;17.13;12.75;;;26.30;65.60;;;;;;4994420;28;20033;-53
2022/06/04 09:39:06;;;;;;;23.30;14.00;;;26.30;64.50;;;;;;4993251;28;20026;-52
2022/06/04 09:41:33;;;;;;;21.10;15.05;;;26.30;63.90;;;;;;4994312;28;20030;-56
2022/06/04 09:44:08;;;;;;;19.20;13.85;;;26.20;64.40;;;;;;4994475;28;20488;-57
2022/06/04 09:46:35;;;;;;;19.65;14.20;;;26.30;64.50;;;;;;4994332;28;20390;-53
2022/06/04 09:49:19;;;;;;;20.45;14.35;;;26.50;64.00;;;;;;4992893;28;20057;-56
2022/06/04 09:51:45;;;;;;;17.40;12.40;;;26.60;63.80;;;;;;4994393;28;20093;-56
2022/06/04 09:54:33;;;;;;;17.80;10.75;;;26.80;64.90;;;;;;4994274;28;20517;-55
2022/06/04 09:57:05;;;;;;;;;;;27.00;60.70;;;;;;4994657;28;20033;-54
2022/06/04 09:59:34;;;;;;;20.80;12.25;;;27.00;61.10;;;;;;4993978;28;19913;-58
2022/06/04 10:02:18;;;;;;;19.65;12.23;;;26.90;63.60;;;;;;4994140;28;20027;-55
2022/06/04 10:04:48;;;;;;;19.92;13.45;;;27.00;66.10;;;;;;4993945;28;20073;-55
2022/06/04 10:07:28;;;;;;;18.23;11.90;;;27.00;64.20;;;;;;4993929;28;20027;-55
2022/06/04 10:09:55;;;;;;;13.23;9.38;;;27.10;65.60;;;;;;4993813;28;20475;-56
2022/06/04 10:13:42;;;;;;;18.83;11.75;;;27.20;64.40;;;;;;4993814;28;20022;-58
2022/06/04 10:15:30;;;;;;;14.68;11.63;;;27.30;65.10;;;;;;4993546;28;20033;-54
2022/06/04 10:18:30;;;;;;;15.95;7.90;;;27.40;64.00;;;;;;4993893;28;20038;-58
2022/06/04 10:21:20;;;;;;;17.15;9.85;;;27.40;62.10;;;;;;4993067;28;20496;-53
2022/06/04 10:23:49;;;;;;;17.17;10.18;;;27.30;65.00;;;;;;4993686;28;20487;-55
2022/06/04 10:26:54;;;;;;;14.82;10.43;;;27.30;72.70;;;;;;4992090;28;20027;-53
2022/06/04 10:29:19;;;;;;;12.60;5.70;;;27.20;57.70;;;;;;4923961;28;20043;-59
2022/06/04 10:32:06;;;;;;;8.47;3.80;;;27.20;53.90;;;;;;4993560;28;20050;-57
2022/06/04 10:34:47;;;;;;;19.20;8.33;;;27.40;54.80;;;;;;4993516;28;20033;-58
2022/06/04 10:37:37;;;;;;;11.50;7.00;;;27.60;55.00;;;;;;4993635;28;20050;-58
2022/06/04 10:40:31;;;;;;;19.05;9.18;;;27.80;55.80;;;;;;5016526;23;20104;-57
2022/06/04 10:43:05;;;;;;;18.50;10.88;;;28.10;54.50;;;;;;5012880;28;20631;-57
2022/06/04 10:45:32;;;;;;;16.83;12.30;;;28.10;53.40;;;;;;5012682;28;20022;-58
2022/06/04 10:48:04;;;;;;;;;;;28.00;55.00;;;;;;5013119;28;20037;-56
2022/06/04 10:53:45;;;;;;;15.23;9.55;;;28.10;56.10;;;;;;5013060;28;20073;-54
2022/06/04 10:56:16;;;;;;;14.55;10.32;;;28.20;56.10;;;;;;5007246;28;20030;-57
2022/06/04 10:58:54;;;;;;;17.55;10.57;;;28.40;55.40;;;;;;4987802;28;20030;-58
2022/06/04 11:01:27;;;;;;;19.33;12.00;;;28.50;55.40;;;;;;5008072;28;20036;-58
2022/06/04 11:04:08;;;;;;;22.80;12.60;;;28.40;56.00;;;;;;5012164;28;20053;-57
2022/06/04 11:06:42;;;;;;;20.95;11.80;;;28.50;54.80;;;;;;5011535;28;20034;-57
2022/06/04 11:09:21;;;;;;;19.48;11.90;;;28.50;55.10;;;;;;5001707;28;20038;-57
2022/06/04 11:11:51;;;;;;;19.08;11.75;;;28.60;55.90;;;;;;4992936;28;20034;-56
2022/06/04 11:14:36;;;;;;;17.90;12.48;;;28.70;55.20;;;;;;5011715;28;20068;-57
2022/06/04 11:17:34;;;;;;;17.55;11.57;;;28.90;53.60;;;;;;5012353;28;20026;-56
2022/06/04 11:20:20;;;;;;;23.93;10.17;;;29.10;55.00;;;;;;5007895;28;20421;-57
2022/06/04 11:23:41;;;;;;;14.70;9.75;;;29.10;53.00;;;;;;5004125;28;20030;-57
2022/06/04 11:26:51;;;;;;;16.15;10.20;;;29.10;52.90;;;;;;4913384;29;20176;-57
2022/06/04 11:29:18;;;;;;;16.27;11.15;;;29.20;53.30;;;;;;5002107;28;20065;-57
2022/06/04 11:31:43;;;;;;;;;;;29.40;53.10;;;;;;4992784;28;20030;-58
2022/06/04 11:34:38;;;;;;;15.15;10.48;;;29.50;53.10;;;;;;4981550;28;19916;-56
2022/06/04 11:37:17;;;;;;;17.27;9.32;;;29.60;51.20;;;;;;5000384;28;20027;-57
2022/06/04 11:40:11;;;;;;;16.15;8.77;;;29.60;50.40;;;;;;4997651;28;20096;-58
2022/06/04 11:43:05;;;;;;;14.85;8.18;;;29.70;50.20;;;;;;5011046;28;20057;-55
2022/06/04 11:46:02;;;;;;;14.00;7.68;;;29.90;50.00;;;;;;5011873;28;20026;-57
2022/06/04 11:48:46;;;;;;;15.10;8.20;;;30.10;49.90;;;;;;4999465;28;20031;-59
2022/06/04 11:51:24;;;;;;;10.93;7.30;;;30.30;48.00;;;;;;5002275;28;20058;-58
2022/06/04 11:53:57;;;;;;;12.95;5.93;;;30.40;49.60;;;;;;4997332;28;20029;-58
2022/06/04 11:56:36;;;;;;;15.05;6.15;;;30.60;48.70;;;;;;4999834;28;20030;-58
2022/06/04 11:59:37;;;;;;;13.40;6.10;;;30.80;48.10;;;;;;4992439;28;20027;-58
2022/06/04 12:02:16;;;;;;;18.85;6.97;;;31.00;48.30;;;;;;4993214;28;20454;-57
2022/06/04 12:05:11;;;;;;;14.40;6.50;;;31.20;48.60;;;;;;5011658;28;20026;-57
2022/06/04 12:07:41;;;;;;;14.02;9.05;;;31.40;46.80;;;;;;5002173;28;20037;-58
2022/06/04 12:10:45;;;;;;;13.73;7.65;;;31.30;46.50;;;;;;5011999;28;20101;-57
2022/06/04 12:13:45;;;;;;;16.13;7.10;;;31.20;47.20;;;;;;5007809;28;20100;-56
2022/06/04 12:16:29;;;;;;;15.63;8.20;;;30.90;47.60;;;;;;4968121;28;20038;-58
2022/06/04 12:19:04;;;;;;;19.20;7.05;;;31.00;48.60;;;;;;5002547;28;20383;-58
2022/06/04 12:24:18;;;;;;;15.35;7.38;;;31.00;47.40;;;;;;4999161;28;20545;-58
2022/06/04 12:26:47;;;;;;;11.98;6.07;;;31.20;47.90;;;;;;5011656;28;20129;-58
2022/06/04 12:29:28;;;;;;;16.55;6.75;;;31.40;47.20;;;;;;5002327;28;20015;-57
2022/06/04 12:31:58;;;;;;;9.32;5.32;;;31.60;45.70;;;;;;4992034;28;20402;-58
2022/06/04 12:34:38;;;;;;;11.57;4.70;;;31.60;45.90;;;;;;5009148;28;20129;-57
2022/06/04 12:37:07;;;;;;;14.75;5.38;;;31.60;42.50;;;;;;4997539;28;20021;-54
2022/06/04 12:39:38;;;;;;;6.75;4.30;;;31.60;43.70;;;;;;5000614;28;20084;-57
2022/06/04 12:42:19;;;;;;;10.90;5.30;;;31.70;43.00;;;;;;4974433;28;20040;-58
2022/06/04 12:45:04;;;;;;;12.05;6.15;;;31.90;42.30;;;;;;4997122;28;20021;-55
2022/06/04 12:47:33;;;;;;;14.68;6.88;;;31.90;43.70;;;;;;5012249;28;20405;-57
2022/06/04 12:50:18;;;;;;;14.82;7.40;;;32.10;43.30;;;;;;5013478;28;20505;-57
2022/06/04 12:52:51;;;;;;;15.40;6.05;;;32.20;43.40;;;;;;5015027;28;20629;-56
2022/06/04 12:55:25;;;;;;;11.48;5.80;;;32.30;43.70;;;;;;4996885;28;20029;-58
2022/06/04 12:57:59;;;;;;;14.02;7.45;;;32.30;42.70;;;;;;5014291;28;20042;-58
2022/06/04 13:00:29;;;;;;;13.13;6.43;;;32.40;43.40;;;;;;4991433;28;20030;-58
2022/06/04 13:03:06;;;;;;;15.25;7.57;;;32.50;43.60;;;;;;5008229;28;20285;-58
2022/06/04 13:05:34;;;;;;;15.05;6.63;;;32.70;42.50;;;;;;4995250;28;20045;-58
2022/06/04 13:08:19;;;;;;;12.05;6.15;;;32.70;42.50;;;;;;4995052;28;20100;-57
2022/06/04 13:11:01;;;;;;;14.77;5.38;;;32.70;43.20;;;;;;5006204;28;20394;-58
2022/06/04 13:13:30;;;;;;;11.57;5.25;;;32.90;43.20;;;;;;5004675;28;20045;-58